createdAt,value
2017-11-06T00:01:35.889Z,17.53
2017-11-06T00:04:03.472Z,20.00
2017-11-06T00:06:31.045Z,17.07
2017-11-06T00:08:59.392Z,13.83
2017-11-06T00:11:26.953Z,12.37
2017-11-06T00:13:54.536Z,11.50
2017-11-06T00:16:22.870Z,14.67
2017-11-06T00:18:50.673Z,14.20
2017-11-06T00:21:18.237Z,23.50
2017-11-06T00:23:45.813Z,25.77
2017-11-06T00:26:15.923Z,19.02
2017-11-06T00:28:43.488Z,19.17
2017-11-06T00:31:11.845Z,26.73
2017-11-06T00:33:39.404Z,22.23
2017-11-06T00:36:06.989Z,17.30
2017-11-06T00:38:35.351Z,17.10
2017-11-06T00:41:02.937Z,20.10
2017-11-06T00:43:31.267Z,21.27
2017-11-06T00:45:58.856Z,20.83
2017-11-06T00:48:26.422Z,16.40
2017-11-06T00:50:54.011Z,14.97
2017-11-06T00:53:21.577Z,20.13
2017-11-06T00:55:49.184Z,15.23
2017-11-06T00:58:16.760Z,19.33
2017-11-06T01:00:44.343Z,16.70
2017-11-06T01:03:12.671Z,20.73
2017-11-06T01:05:40.236Z,15.03
2017-11-06T01:08:07.825Z,16.23
2017-11-06T01:10:35.664Z,19.37
2017-11-06T01:13:03.248Z,16.60
2017-11-06T01:15:30.909Z,18.55
2017-11-06T01:17:58.491Z,16.33
2017-11-06T01:20:26.816Z,20.40
2017-11-06T01:22:54.405Z,21.20
2017-11-06T01:25:22.072Z,22.33
2017-11-06T01:27:51.300Z,27.27
2017-11-06T01:30:19.632Z,17.12
2017-11-06T01:32:47.192Z,19.60
2017-11-06T01:35:15.250Z,25.03
2017-11-06T01:37:42.816Z,28.47
2017-11-06T01:40:10.410Z,25.07
2017-11-06T01:42:37.972Z,29.33
2017-11-06T01:45:07.069Z,29.70
2017-11-06T01:47:34.628Z,25.53
2017-11-06T01:50:02.316Z,30.27
2017-11-06T01:52:30.649Z,35.33
2017-11-06T01:54:58.244Z,36.40
2017-11-06T01:57:26.583Z,42.58
2017-11-06T01:59:54.193Z,36.63
2017-11-06T02:02:22.524Z,36.07
2017-11-06T02:04:50.088Z,31.17
2017-11-06T02:07:17.676Z,32.42
2017-11-06T02:09:45.248Z,27.53
2017-11-06T02:12:13.610Z,35.07
2017-11-06T02:14:41.180Z,30.87
2017-11-06T02:17:09.697Z,27.57
2017-11-06T02:19:37.506Z,29.90
2017-11-06T02:22:06.163Z,26.20
2017-11-06T02:24:34.133Z,37.17
2017-11-06T02:27:01.768Z,30.90
2017-11-06T02:29:29.339Z,37.13
2017-11-06T02:31:56.925Z,33.13
2017-11-06T02:34:24.521Z,40.12
2017-11-06T02:36:52.365Z,34.60
2017-11-06T02:39:19.932Z,33.43
2017-11-06T02:41:47.500Z,36.50
2017-11-06T02:44:17.620Z,37.13
2017-11-06T02:46:45.185Z,35.10
2017-11-06T02:49:12.778Z,34.90
2017-11-06T02:51:41.124Z,40.90
2017-11-06T02:54:08.715Z,26.33
2017-11-06T02:56:37.055Z,38.97
2017-11-06T02:59:04.649Z,31.17
2017-11-06T03:01:32.976Z,31.23
2017-11-06T03:04:00.568Z,40.50
2017-11-06T03:06:28.144Z,33.27
2017-11-06T03:08:56.618Z,99.13
2017-11-06T03:11:24.973Z,93.53
2017-11-06T03:13:52.552Z,96.13
2017-11-06T03:16:20.141Z,85.03
2017-11-06T03:18:47.704Z,40.90
2017-11-06T03:21:16.397Z,35.65
2017-11-06T03:23:43.965Z,32.57
2017-11-06T03:26:11.560Z,35.30
2017-11-06T03:28:39.126Z,38.90
2017-11-06T03:31:06.721Z,30.00
2017-11-06T03:33:35.060Z,32.33
2017-11-06T03:36:02.952Z,38.73
2017-11-06T03:38:31.301Z,39.97
2017-11-06T03:40:58.864Z,42.03
2017-11-06T03:43:26.448Z,43.33
2017-11-06T03:45:54.008Z,40.60
2017-11-06T03:48:21.595Z,42.92
2017-11-06T03:50:49.928Z,40.10
2017-11-06T03:53:17.516Z,39.17
2017-11-06T03:55:45.081Z,35.67
2017-11-06T03:58:14.261Z,40.33
2017-11-06T04:00:42.644Z,133.47
2017-11-06T04:03:10.308Z,204.10
2017-11-06T04:05:37.905Z,257.30
2017-11-06T04:08:05.477Z,216.57
2017-11-06T04:10:33.069Z,229.97
2017-11-06T04:13:00.636Z,264.03
2017-11-06T04:15:28.232Z,257.85
2017-11-06T04:17:56.568Z,205.50
2017-11-06T04:20:24.161Z,240.27
2017-11-06T04:22:51.736Z,211.23
2017-11-06T04:25:20.088Z,109.90
2017-11-06T04:27:47.661Z,124.82
2017-11-06T04:30:17.568Z,142.93
2017-11-06T04:32:45.133Z,119.87
2017-11-06T04:35:13.024Z,143.43
2017-11-06T04:37:41.361Z,141.12
2017-11-06T04:40:08.923Z,103.20
2017-11-06T04:42:36.519Z,163.70
2017-11-06T04:45:04.856Z,171.55
2017-11-06T04:47:32.456Z,144.33
2017-11-06T04:50:00.780Z,95.30
2017-11-06T04:52:28.396Z,138.60
2017-11-06T04:54:56.733Z,117.72
2017-11-06T04:57:24.328Z,155.27
2017-11-06T04:59:52.664Z,126.83
2017-11-06T05:02:20.456Z,272.95
2017-11-06T05:04:48.024Z,158.47
2017-11-06T05:07:17.708Z,216.05
2017-11-06T05:09:45.300Z,211.20
2017-11-06T05:12:13.836Z,259.33
2017-11-06T05:14:41.408Z,114.90
2017-11-06T05:17:08.973Z,56.47
2017-11-06T05:19:36.565Z,37.33
2017-11-06T05:22:04.128Z,31.13
2017-11-06T05:24:32.800Z,42.00
2017-11-06T05:27:01.997Z,42.77
2017-11-06T05:29:29.565Z,37.17
2017-11-06T05:31:58.018Z,77.13
2017-11-06T05:34:25.584Z,72.60
2017-11-06T05:36:53.168Z,113.67
2017-11-06T05:39:20.752Z,145.70
2017-11-06T05:41:49.087Z,184.03
2017-11-06T05:44:17.480Z,184.93
2017-11-06T05:46:45.045Z,150.23
2017-11-06T05:49:14.337Z,114.47
2017-11-06T05:51:42.017Z,95.80
2017-11-06T05:54:10.387Z,106.30
2017-11-06T05:56:37.948Z,123.10
2017-11-06T05:59:05.761Z,143.03
2017-11-06T06:01:33.336Z,147.87
2017-11-06T06:04:00.903Z,121.13
2017-11-06T06:06:28.497Z,93.97
2017-11-06T06:08:56.055Z,62.43
2017-11-06T06:11:23.643Z,56.37
2017-11-06T06:13:51.973Z,72.43
2017-11-06T06:16:19.544Z,158.68
2017-11-06T06:18:47.908Z,102.27
2017-11-06T06:21:17.740Z,135.32
2017-11-06T06:23:45.340Z,155.10
2017-11-06T06:26:14.600Z,128.67
2017-11-06T06:28:42.188Z,154.77
2017-11-06T06:31:10.524Z,141.23
2017-11-06T06:33:38.520Z,143.30
2017-11-06T06:36:06.188Z,165.60
2017-11-06T06:38:33.756Z,128.67
2017-11-06T06:41:02.112Z,157.43
2017-11-06T06:43:29.681Z,216.68
2017-11-06T06:45:57.276Z,179.03
2017-11-06T06:48:25.612Z,212.03
2017-11-06T06:50:53.208Z,267.50
2017-11-06T06:53:21.543Z,179.98
2017-11-06T06:55:49.136Z,106.13
2017-11-06T06:58:17.688Z,161.40
2017-11-06T07:00:45.275Z,218.03
2017-11-06T07:03:15.356Z,232.23
2017-11-06T07:05:43.048Z,269.63
2017-11-06T07:08:10.625Z,209.75
2017-11-06T07:10:38.983Z,128.93
2017-11-06T07:13:06.662Z,143.93
2017-11-06T07:15:34.251Z,94.20
2017-11-06T07:18:01.820Z,95.20
2017-11-06T07:20:29.436Z,101.57
2017-11-06T07:22:57.105Z,78.63
2017-11-06T07:25:25.440Z,73.70
2017-11-06T07:27:53.032Z,45.27
2017-11-06T07:30:20.600Z,44.80
2017-11-06T07:32:48.196Z,29.33
2017-11-06T07:35:18.563Z,16.35
2017-11-06T07:37:46.149Z,27.47
2017-11-06T07:40:15.517Z,15.93
2017-11-06T07:42:43.100Z,8.57
2017-11-06T07:45:10.661Z,11.27
2017-11-06T07:47:38.240Z,6.73
2017-11-06T07:50:05.801Z,7.30
2017-11-06T07:52:33.664Z,8.52
2017-11-06T07:55:01.220Z,7.93
2017-11-06T07:57:28.782Z,10.48
2017-11-06T07:59:56.372Z,9.53
2017-11-06T08:02:24.704Z,10.20
2017-11-06T08:04:52.297Z,10.20
2017-11-06T08:07:20.629Z,10.25
2017-11-06T08:09:48.236Z,12.07
2017-11-06T08:12:17.393Z,7.53
2017-11-06T08:14:44.957Z,13.07
2017-11-06T08:17:12.544Z,12.43
2017-11-06T08:19:40.112Z,11.50
2017-11-06T08:22:07.708Z,14.50
2017-11-06T08:24:35.276Z,9.93
2017-11-06T08:27:02.859Z,9.37
2017-11-06T08:29:30.428Z,8.70
2017-11-06T08:31:58.265Z,7.40
2017-11-06T08:34:25.840Z,10.73
2017-11-06T08:36:53.412Z,7.40
2017-11-06T08:39:21.000Z,6.55
2017-11-06T08:41:48.568Z,9.80
2017-11-06T08:44:17.161Z,9.37
2017-11-06T08:46:45.488Z,11.40
2017-11-06T08:49:13.580Z,10.43
2017-11-06T08:51:41.144Z,11.97
2017-11-06T08:54:08.728Z,11.37
2017-11-06T08:56:37.061Z,14.53
2017-11-06T08:59:04.652Z,12.37
2017-11-06T09:01:32.232Z,11.10
2017-11-06T09:04:00.660Z,11.03
2017-11-06T09:06:28.232Z,11.20
2017-11-06T09:08:55.926Z,11.93
2017-11-06T09:11:23.488Z,13.80
2017-11-06T09:13:51.076Z,12.30
2017-11-06T09:16:18.696Z,14.77
2017-11-06T09:18:46.301Z,9.53
2017-11-06T09:21:15.548Z,8.33
2017-11-06T09:23:43.113Z,11.97
2017-11-06T09:26:11.468Z,9.10
2017-11-06T09:28:39.036Z,9.60
2017-11-06T09:31:06.721Z,9.43
2017-11-06T09:33:34.288Z,12.23
2017-11-06T09:36:02.257Z,13.03
2017-11-06T09:38:29.819Z,9.80
2017-11-06T09:40:57.388Z,14.17
2017-11-06T09:43:25.751Z,9.13
2017-11-06T09:45:53.357Z,12.30
2017-11-06T09:48:20.924Z,8.25
2017-11-06T09:50:48.491Z,14.23
2017-11-06T09:53:17.316Z,8.73
2017-11-06T09:55:44.993Z,10.17
2017-11-06T09:58:12.649Z,8.97
2017-11-06T10:00:40.212Z,7.30
2017-11-06T10:03:07.800Z,10.00
2017-11-06T10:05:36.148Z,9.43
2017-11-06T10:08:03.744Z,10.47
2017-11-06T10:10:31.376Z,8.23
2017-11-06T10:12:59.035Z,10.30
2017-11-06T10:15:26.596Z,8.17
2017-11-06T10:17:54.949Z,9.97
2017-11-06T10:20:22.540Z,8.50
2017-11-06T10:22:50.128Z,8.13
2017-11-06T10:25:18.451Z,7.80
2017-11-06T10:27:46.447Z,7.23
2017-11-06T10:30:15.213Z,6.67
2017-11-06T10:32:42.799Z,5.13
2017-11-06T10:35:10.460Z,8.80
2017-11-06T10:37:38.019Z,8.77
2017-11-06T10:40:05.627Z,6.47
2017-11-06T10:42:33.199Z,7.77
2017-11-06T10:45:00.760Z,6.87
2017-11-06T10:47:28.356Z,7.03
2017-11-06T10:49:55.916Z,7.73
2017-11-06T10:52:23.508Z,6.82
2017-11-06T10:54:52.056Z,13.93
2017-11-06T10:57:19.619Z,6.75
2017-11-06T10:59:47.184Z,11.57
2017-11-06T11:02:15.656Z,11.57
2017-11-06T11:04:43.260Z,20.67
2017-11-06T11:07:11.608Z,11.87
2017-11-06T11:09:39.951Z,12.60
2017-11-06T11:12:07.857Z,13.13
2017-11-06T11:14:35.631Z,11.03
2017-11-06T11:17:04.374Z,13.47
2017-11-06T11:19:31.976Z,12.07
2017-11-06T11:22:01.072Z,14.77
2017-11-06T11:24:28.636Z,9.93
2017-11-06T11:26:56.249Z,11.33
2017-11-06T11:29:24.144Z,13.48
2017-11-06T11:31:51.712Z,13.90
2017-11-06T11:34:19.317Z,14.75
2017-11-06T11:36:46.924Z,14.90
2017-11-06T11:39:15.400Z,13.03
2017-11-06T11:41:43.004Z,9.90
2017-11-06T11:44:11.360Z,15.37
2017-11-06T11:46:39.711Z,13.43
2017-11-06T11:49:07.276Z,15.13
2017-11-06T11:51:34.876Z,13.03
2017-11-06T11:54:03.259Z,8.80
2017-11-06T11:56:31.777Z,9.63
2017-11-06T11:58:59.396Z,8.80
2017-11-06T12:01:27.049Z,8.63
2017-11-06T12:03:54.644Z,8.77
2017-11-06T12:06:22.992Z,9.45
2017-11-06T12:08:50.600Z,13.30
2017-11-06T12:11:18.157Z,6.37
2017-11-06T12:13:45.765Z,12.67
2017-11-06T12:16:15.286Z,8.70
2017-11-06T12:18:42.856Z,8.40
2017-11-06T12:21:11.231Z,10.13
2017-11-06T12:23:39.573Z,8.40
2017-11-06T12:26:07.453Z,9.50
2017-11-06T12:28:35.269Z,10.20
2017-11-06T12:31:02.855Z,7.03
2017-11-06T12:33:30.456Z,6.45
2017-11-06T12:35:58.048Z,10.73
2017-11-06T12:38:26.400Z,11.30
2017-11-06T12:40:54.012Z,9.00
2017-11-06T12:43:21.580Z,8.70
2017-11-06T12:45:49.140Z,8.80
2017-11-06T12:48:16.728Z,10.87
2017-11-06T12:50:44.332Z,12.83
2017-11-06T12:53:13.580Z,4.27
2017-11-06T12:55:41.149Z,14.00
2017-11-06T12:58:08.736Z,9.90
2017-11-06T13:00:37.074Z,12.73
2017-11-06T13:03:04.668Z,12.33
2017-11-06T13:05:32.228Z,8.27
2017-11-06T13:07:59.884Z,9.10
2017-11-06T13:10:27.503Z,8.55
2017-11-06T13:12:55.116Z,12.30
2017-11-06T13:15:22.681Z,7.90
2017-11-06T13:17:51.032Z,6.87
2017-11-06T13:20:18.592Z,7.90
2017-11-06T13:22:46.180Z,9.10
2017-11-06T13:25:13.844Z,7.77
2017-11-06T13:27:42.211Z,7.47
2017-11-06T13:30:09.774Z,6.63
2017-11-06T13:32:37.432Z,3.93
2017-11-06T13:35:05.787Z,4.40
2017-11-06T13:37:33.393Z,3.00
2017-11-06T13:40:01.720Z,3.60
2017-11-06T13:42:29.315Z,2.05
2017-11-06T13:44:58.408Z,2.40
2017-11-06T13:47:26.072Z,4.62
2017-11-06T13:49:53.640Z,2.20
2017-11-06T13:52:21.228Z,6.02
2017-11-06T13:54:48.854Z,4.37
2017-11-06T13:57:16.621Z,6.27
2017-11-06T13:59:44.952Z,2.33
2017-11-06T14:02:13.444Z,3.13
2017-11-06T14:04:41.248Z,9.33
2017-11-06T14:07:09.624Z,4.90
2017-11-06T14:09:37.186Z,2.87
2017-11-06T14:12:06.280Z,1.80
2017-11-06T14:14:34.664Z,1.60
2017-11-06T14:17:02.252Z,2.53
2017-11-06T14:19:30.590Z,4.37
2017-11-06T14:21:58.178Z,2.90
2017-11-06T14:24:26.559Z,3.87
2017-11-06T14:26:55.025Z,4.00
2017-11-06T14:29:22.589Z,6.72
2017-11-06T14:31:50.147Z,6.03
2017-11-06T14:34:17.726Z,8.70
2017-11-06T14:36:46.053Z,7.07
2017-11-06T14:39:15.477Z,4.67
2017-11-06T14:41:43.041Z,5.53
2017-11-06T14:44:10.636Z,3.97
2017-11-06T14:46:38.968Z,4.10
2017-11-06T14:49:06.573Z,4.57
2017-11-06T14:51:34.928Z,7.30
2017-11-06T14:54:02.533Z,11.77
2017-11-06T14:56:30.096Z,7.45
2017-11-06T14:58:57.660Z,10.90
2017-11-06T15:01:25.245Z,16.00
2017-11-06T15:03:53.121Z,7.30
2017-11-06T15:06:20.684Z,4.85
2017-11-06T15:08:48.240Z,7.67
2017-11-06T15:11:16.744Z,8.23
2017-11-06T15:13:45.068Z,6.43
2017-11-06T15:16:12.653Z,5.70
2017-11-06T15:18:40.208Z,7.27
2017-11-06T15:21:08.005Z,4.25
2017-11-06T15:23:35.567Z,16.63
2017-11-06T15:26:03.948Z,5.10
2017-11-06T15:28:32.329Z,4.20
2017-11-06T15:30:59.901Z,7.00
2017-11-06T15:33:28.265Z,15.27
2017-11-06T15:35:55.968Z,25.53
2017-11-06T15:38:23.553Z,6.70
2017-11-06T15:40:51.491Z,14.57
2017-11-06T15:43:19.839Z,8.88
2017-11-06T15:45:47.397Z,9.52
2017-11-06T15:48:17.195Z,9.97
2017-11-06T15:50:44.820Z,10.53
2017-11-06T15:53:14.399Z,9.30
2017-11-06T15:55:42.728Z,14.00
2017-11-06T15:58:10.320Z,9.03
2017-11-06T16:00:37.887Z,10.13
2017-11-06T16:03:05.633Z,10.63
2017-11-06T16:05:33.268Z,10.18
2017-11-06T16:08:00.867Z,12.33
2017-11-06T16:10:28.453Z,17.48
2017-11-06T16:12:56.789Z,15.70
2017-11-06T16:15:24.380Z,20.13
2017-11-06T16:17:51.946Z,17.43
2017-11-06T16:20:20.303Z,16.33
2017-11-06T16:22:47.880Z,22.40
2017-11-06T16:25:17.472Z,19.05
2017-11-06T16:27:45.040Z,33.40
2017-11-06T16:30:12.643Z,17.50
2017-11-06T16:32:40.203Z,15.87
2017-11-06T16:35:07.896Z,13.00
2017-11-06T16:37:35.508Z,17.15
2017-11-06T16:40:03.885Z,17.37
2017-11-06T16:42:32.217Z,17.43
2017-11-06T16:44:59.804Z,19.57
2017-11-06T16:47:27.373Z,22.15
2017-11-06T16:49:55.029Z,19.50
2017-11-06T16:52:22.600Z,19.00
2017-11-06T16:54:51.000Z,20.23
2017-11-06T16:57:19.328Z,18.43
2017-11-06T16:59:46.921Z,16.10
2017-11-06T17:02:16.173Z,19.53
2017-11-06T17:04:43.765Z,19.20
2017-11-06T17:07:11.352Z,18.00
2017-11-06T17:09:39.796Z,17.40
2017-11-06T17:12:07.388Z,20.50
2017-11-06T17:14:35.745Z,17.40
2017-11-06T17:17:03.329Z,18.50
2017-11-06T17:19:31.700Z,16.73
2017-11-06T17:22:00.064Z,22.23
2017-11-06T17:24:27.632Z,22.50
2017-11-06T17:26:55.224Z,19.47
2017-11-06T17:29:23.940Z,20.43
2017-11-06T17:31:51.520Z,19.33
2017-11-06T17:34:19.080Z,17.80
2017-11-06T17:36:46.799Z,20.77
2017-11-06T17:39:16.052Z,22.53
2017-11-06T17:41:43.611Z,16.60
2017-11-06T17:44:11.249Z,17.40
2017-11-06T17:46:38.815Z,24.20
2017-11-06T17:49:06.404Z,21.30
2017-11-06T17:51:34.888Z,20.75
2017-11-06T17:54:02.471Z,36.03
2017-11-06T17:56:30.809Z,31.00
2017-11-06T17:58:58.392Z,31.40
2017-11-06T18:01:25.959Z,27.73
2017-11-06T18:03:54.401Z,37.70
2017-11-06T18:06:21.968Z,27.88
2017-11-06T18:08:49.597Z,27.77
2017-11-06T18:11:17.181Z,21.63
2017-11-06T18:13:44.879Z,30.20
2017-11-06T18:16:12.449Z,29.00
2017-11-06T18:18:40.219Z,24.27
2017-11-06T18:21:08.595Z,37.13
2017-11-06T18:23:36.944Z,33.97
2017-11-06T18:26:04.536Z,34.40
2017-11-06T18:28:32.967Z,26.42
2017-11-06T18:31:00.589Z,29.53
2017-11-06T18:33:28.172Z,29.20
2017-11-06T18:35:55.741Z,27.53
2017-11-06T18:38:23.395Z,25.55
2017-11-06T18:40:50.976Z,29.63
2017-11-06T18:43:18.576Z,35.97
2017-11-06T18:45:46.148Z,33.90
2017-11-06T18:48:16.243Z,34.90
2017-11-06T18:50:43.808Z,31.67
2017-11-06T18:53:11.384Z,28.30
2017-11-06T18:55:39.775Z,26.43
2017-11-06T18:58:08.108Z,32.43
2017-11-06T19:00:35.736Z,33.37
2017-11-06T19:03:03.316Z,34.43
2017-11-06T19:05:30.912Z,27.43
2017-11-06T19:07:58.472Z,25.47
2017-11-06T19:10:26.059Z,23.00
2017-11-06T19:12:54.404Z,22.37
2017-11-06T19:15:22.042Z,31.98
2017-11-06T19:17:49.609Z,35.90
2017-11-06T19:20:17.296Z,40.43
2017-11-06T19:22:44.868Z,30.37
2017-11-06T19:25:13.413Z,31.87
2017-11-06T19:27:41.017Z,34.47
2017-11-06T19:30:09.356Z,54.93
2017-11-06T19:32:36.944Z,29.87
2017-11-06T19:35:04.508Z,35.97
2017-11-06T19:37:32.101Z,35.07
2017-11-06T19:39:59.664Z,39.67
2017-11-06T19:42:27.264Z,34.50
2017-11-06T19:44:54.832Z,36.70
2017-11-06T19:47:22.424Z,25.35
2017-11-06T19:49:50.752Z,35.10
2017-11-06T19:52:18.344Z,33.43
2017-11-06T19:54:45.909Z,29.37
2017-11-06T19:57:14.437Z,34.33
2017-11-06T19:59:42.004Z,32.17
2017-11-06T20:02:09.572Z,27.20
2017-11-06T20:04:37.165Z,32.87
2017-11-06T20:07:04.727Z,28.30
2017-11-06T20:09:32.321Z,27.23
2017-11-06T20:11:59.938Z,36.50
2017-11-06T20:14:28.305Z,29.83
2017-11-06T20:16:56.801Z,32.60
2017-11-06T20:19:24.583Z,32.33
2017-11-06T20:21:52.912Z,29.60
2017-11-06T20:24:20.479Z,34.07
2017-11-06T20:26:48.073Z,29.27
2017-11-06T20:29:18.014Z,35.27
2017-11-06T20:31:46.352Z,39.50
2017-11-06T20:34:14.836Z,34.73
2017-11-06T20:36:42.425Z,40.87
2017-11-06T20:39:09.992Z,36.63
2017-11-06T20:41:38.344Z,35.93
2017-11-06T20:44:05.908Z,30.20
2017-11-06T20:46:33.500Z,31.60
2017-11-06T20:49:01.836Z,35.27
2017-11-06T20:51:29.429Z,32.40
2017-11-06T20:53:56.991Z,32.73
2017-11-06T20:56:24.581Z,40.17
2017-11-06T20:58:52.145Z,29.10
2017-11-06T21:01:19.732Z,28.50
2017-11-06T21:03:47.315Z,32.93
2017-11-06T21:06:17.036Z,33.67
2017-11-06T21:08:45.056Z,31.20
2017-11-06T21:11:13.578Z,27.90
2017-11-06T21:13:41.157Z,28.67
2017-11-06T21:16:08.745Z,32.90
2017-11-06T21:18:37.082Z,31.43
2017-11-06T21:21:04.695Z,29.10
2017-11-06T21:23:32.260Z,35.47
2017-11-06T21:25:59.849Z,34.47
2017-11-06T21:28:27.419Z,34.10
2017-11-06T21:30:55.201Z,28.53
2017-11-06T21:33:22.763Z,33.70
2017-11-06T21:35:50.336Z,38.27
2017-11-06T21:38:18.705Z,39.80
2017-11-06T21:40:46.653Z,35.63
2017-11-06T21:43:15.171Z,37.00
2017-11-06T21:45:43.504Z,34.43
2017-11-06T21:48:11.097Z,32.37
2017-11-06T21:50:38.661Z,38.80
2017-11-06T21:53:06.256Z,37.30
2017-11-06T21:55:33.828Z,37.67
2017-11-06T21:58:01.420Z,40.00
2017-11-06T22:00:28.987Z,43.47
2017-11-06T22:02:56.768Z,48.97
2017-11-06T22:05:24.336Z,54.30
2017-11-06T22:07:52.665Z,53.17
2017-11-06T22:10:20.259Z,52.37
2017-11-06T22:12:48.032Z,57.33
2017-11-06T22:15:16.677Z,68.47
2017-11-06T22:17:44.243Z,59.17
2017-11-06T22:20:11.828Z,52.67
2017-11-06T22:22:39.432Z,59.47
2017-11-06T22:25:08.226Z,65.13
2017-11-06T22:27:35.796Z,81.17
2017-11-06T22:30:03.384Z,58.07
2017-11-06T22:32:31.776Z,71.83
2017-11-06T22:34:59.372Z,74.97
2017-11-06T22:37:27.704Z,91.25
2017-11-06T22:39:55.305Z,73.50
2017-11-06T22:42:23.641Z,71.97
2017-11-06T22:44:51.232Z,70.97
2017-11-06T22:47:20.308Z,71.90
2017-11-06T22:49:47.988Z,73.63
2017-11-06T22:52:16.757Z,54.10
2017-11-06T22:54:44.349Z,60.00
2017-11-06T22:57:13.599Z,56.43
2017-11-06T22:59:41.184Z,65.77
2017-11-06T23:02:08.757Z,59.97
2017-11-06T23:04:36.344Z,49.63
2017-11-06T23:07:04.677Z,50.43
2017-11-06T23:09:32.265Z,66.07
2017-11-06T23:11:59.839Z,61.63
2017-11-06T23:14:28.413Z,59.53
2017-11-06T23:16:56.786Z,68.80
2017-11-06T23:19:24.353Z,57.60
2017-11-06T23:21:51.949Z,66.60
2017-11-06T23:24:19.517Z,56.83
2017-11-06T23:26:47.313Z,54.40
2017-11-06T23:29:16.704Z,64.63
2017-11-06T23:31:44.296Z,69.07
2017-11-06T23:34:11.859Z,57.60
2017-11-06T23:36:39.453Z,64.40
2017-11-06T23:39:07.080Z,54.07
2017-11-06T23:41:35.049Z,60.33
2017-11-06T23:44:02.616Z,72.83
2017-11-06T23:46:30.200Z,70.20
2017-11-06T23:48:58.558Z,75.30
2017-11-06T23:51:26.212Z,62.20
2017-11-06T23:53:53.807Z,59.60
2017-11-06T23:56:21.377Z,72.90
2017-11-06T23:58:48.981Z,66.87
